sensor_id;sensor_type;location;lat;lon;timestamp;pressure;altitude;pressure_sealevel;temperature;humidity
43115;BME280;28727;50.068;14.452;2023-04-05T00:02:08;100024.69;;;1.15;52.92
43115;BME280;28727;50.068;14.452;2023-04-05T00:04:45;100024.50;;;1.18;52.93
43115;BME280;28727;50.068;14.452;2023-04-05T00:07:34;100015.75;;;1.19;52.73
43115;BME280;28727;50.068;14.452;2023-04-05T00:10:06;100022.63;;;1.20;52.51
43115;BME280;28727;50.068;14.452;2023-04-05T00:12:38;100019.28;;;1.18;52.65
43115;BME280;28727;50.068;14.452;2023-04-05T00:15:10;100019.28;;;1.18;53.12
43115;BME280;28727;50.068;14.452;2023-04-05T00:17:43;100015.75;;;1.19;52.90
43115;BME280;28727;50.068;14.452;2023-04-05T00:20:19;100012.44;;;1.17;53.09
43115;BME280;28727;50.068;14.452;2023-04-05T00:22:50;100007.31;;;1.15;52.86
43115;BME280;28727;50.068;14.452;2023-04-05T00:25:22;100007.59;;;1.11;53.45
43115;BME280;28727;50.068;14.452;2023-04-05T00:27:57;100001.72;;;1.07;52.99
43115;BME280;28727;50.068;14.452;2023-04-05T00:30:28;99997.81;;;1.00;53.25
43115;BME280;28727;50.068;14.452;2023-04-05T00:33:00;99998.22;;;0.94;53.83
43115;BME280;28727;50.068;14.452;2023-04-05T00:35:32;99998.31;;;0.93;54.33
43115;BME280;28727;50.068;14.452;2023-04-05T00:38:04;99990.41;;;0.94;53.98
43115;BME280;28727;50.068;14.452;2023-04-05T00:40:36;99990.22;;;0.97;54.04
43115;BME280;28727;50.068;14.452;2023-04-05T00:43:08;99980.00;;;0.94;54.06
43115;BME280;28727;50.068;14.452;2023-04-05T00:45:40;99987.91;;;0.93;54.00
43115;BME280;28727;50.068;14.452;2023-04-05T00:48:12;99982.88;;;0.90;54.18
43115;BME280;28727;50.068;14.452;2023-04-05T00:50:48;99989.75;;;0.91;53.86
43115;BME280;28727;50.068;14.452;2023-04-05T00:53:20;99992.91;;;0.81;54.24
43115;BME280;28727;50.068;14.452;2023-04-05T00:55:56;99994.84;;;0.78;54.56
43115;BME280;28727;50.068;14.452;2023-04-05T00:58:29;99992.25;;;0.78;54.77
43115;BME280;28727;50.068;14.452;2023-04-05T01:01:17;99983.72;;;0.76;54.61
43115;BME280;28727;50.068;14.452;2023-04-05T01:03:52;99987.16;;;0.76;54.42
43115;BME280;28727;50.068;14.452;2023-04-05T01:09:08;99983.31;;;0.68;54.56
43115;BME280;28727;50.068;14.452;2023-04-05T01:11:44;99986.13;;;0.65;54.91
43115;BME280;28727;50.068;14.452;2023-04-05T01:14:18;99981.00;;;0.63;55.03
43115;BME280;28727;50.068;14.452;2023-04-05T01:16:55;99974.13;;;0.62;55.32
43115;BME280;28727;50.068;14.452;2023-04-05T01:19:29;99969.09;;;0.59;55.51
43115;BME280;28727;50.068;14.452;2023-04-05T01:25:21;99960.66;;;0.56;55.73
43115;BME280;28727;50.068;14.452;2023-04-05T01:31:07;99958.59;;;0.47;55.88
43115;BME280;28727;50.068;14.452;2023-04-05T01:36:46;99956.38;;;0.40;56.49
43115;BME280;28727;50.068;14.452;2023-04-05T01:39:20;99958.00;;;0.41;56.63
43115;BME280;28727;50.068;14.452;2023-04-05T01:42:01;99963.22;;;0.41;56.63
43115;BME280;28727;50.068;14.452;2023-04-05T01:44:33;99958.00;;;0.41;56.37
43115;BME280;28727;50.068;14.452;2023-04-05T01:47:10;99957.94;;;0.43;56.32
43115;BME280;28727;50.068;14.452;2023-04-05T01:49:43;99958.13;;;0.40;56.40
43115;BME280;28727;50.068;14.452;2023-04-05T01:52:14;99953.44;;;0.31;56.85
43115;BME280;28727;50.068;14.452;2023-04-05T01:54:49;99951.13;;;0.26;57.03
43115;BME280;28727;50.068;14.452;2023-04-05T01:57:22;99953.09;;;0.23;57.62
43115;BME280;28727;50.068;14.452;2023-04-05T01:59:54;99958.16;;;0.24;57.68
43115;BME280;28727;50.068;14.452;2023-04-05T02:02:27;99960.75;;;0.24;57.51
43115;BME280;28727;50.068;14.452;2023-04-05T02:04:59;99949.44;;;0.25;57.52
43115;BME280;28727;50.068;14.452;2023-04-05T02:07:33;99954.56;;;0.27;57.12
43115;BME280;28727;50.068;14.452;2023-04-05T02:10:08;99959.84;;;0.25;57.46
43115;BME280;28727;50.068;14.452;2023-04-05T02:12:45;99957.31;;;0.24;57.65
43115;BME280;28727;50.068;14.452;2023-04-05T02:15:24;99956.59;;;0.22;57.63
43115;BME280;28727;50.068;14.452;2023-04-05T02:18:07;99959.28;;;0.20;57.46
43115;BME280;28727;50.068;14.452;2023-04-05T02:20:40;99953.31;;;0.18;57.76
43115;BME280;28727;50.068;14.452;2023-04-05T02:23:12;99953.50;;;0.15;57.58
43115;BME280;28727;50.068;14.452;2023-04-05T02:25:45;99937.09;;;0.15;57.44
43115;BME280;28727;50.068;14.452;2023-04-05T02:28:19;99939.97;;;0.10;58.41
43115;BME280;28727;50.068;14.452;2023-04-05T02:30:51;99938.38;;;0.08;58.17
43115;BME280;28727;50.068;14.452;2023-04-05T02:33:23;99934.19;;;0.05;57.79
43115;BME280;28727;50.068;14.452;2023-04-05T02:35:54;99929.25;;;0.00;58.67
43115;BME280;28727;50.068;14.452;2023-04-05T02:38:27;99927.59;;;-0.01;58.67
43115;BME280;28727;50.068;14.452;2023-04-05T02:40:58;99936.22;;;0.00;58.56
43115;BME280;28727;50.068;14.452;2023-04-05T02:43:33;99931.94;;;-0.01;58.94
43115;BME280;28727;50.068;14.452;2023-04-05T02:46:05;99934.56;;;-0.01;58.85
43115;BME280;28727;50.068;14.452;2023-04-05T02:48:42;99932.03;;;-0.03;58.53
43115;BME280;28727;50.068;14.452;2023-04-05T02:51:16;99927.13;;;-0.07;58.51
43115;BME280;28727;50.068;14.452;2023-04-05T02:53:51;99932.38;;;-0.09;58.48
43115;BME280;28727;50.068;14.452;2023-04-05T02:56:25;99931.63;;;-0.11;58.20
43115;BME280;28727;50.068;14.452;2023-04-05T02:58:58;99932.47;;;-0.10;58.40
43115;BME280;28727;50.068;14.452;2023-04-05T03:01:32;99930.78;;;-0.11;58.28
43115;BME280;28727;50.068;14.452;2023-04-05T03:04:11;99933.56;;;-0.14;58.07
43115;BME280;28727;50.068;14.452;2023-04-05T03:06:45;99927.63;;;-0.16;58.20
43115;BME280;28727;50.068;14.452;2023-04-05T03:09:22;99931.25;;;-0.19;58.09
43115;BME280;28727;50.068;14.452;2023-04-05T03:12:00;99926.97;;;-0.20;58.32
43115;BME280;28727;50.068;14.452;2023-04-05T03:14:38;99924.53;;;-0.23;58.10
43115;BME280;28727;50.068;14.452;2023-04-05T03:17:14;99925.56;;;-0.25;58.44
43115;BME280;28727;50.068;14.452;2023-04-05T03:19:54;99923.81;;;-0.25;58.15
43115;BME280;28727;50.068;14.452;2023-04-05T03:22:28;99927.22;;;-0.24;58.54
43115;BME280;28727;50.068;14.452;2023-04-05T03:25:01;99927.31;;;-0.26;58.36
43115;BME280;28727;50.068;14.452;2023-04-05T03:27:37;99924.03;;;-0.29;58.71
43115;BME280;28727;50.068;14.452;2023-04-05T03:30:13;99923.38;;;-0.33;58.83
43115;BME280;28727;50.068;14.452;2023-04-05T03:32:52;99924.31;;;-0.34;58.99
43115;BME280;28727;50.068;14.452;2023-04-05T03:35:37;99916.63;;;-0.35;58.96
43115;BME280;28727;50.068;14.452;2023-04-05T03:38:13;99918.47;;;-0.37;59.74
43115;BME280;28727;50.068;14.452;2023-04-05T03:41:01;99917.69;;;-0.39;59.69
43115;BME280;28727;50.068;14.452;2023-04-05T03:43:33;99918.53;;;-0.39;59.73
43115;BME280;28727;50.068;14.452;2023-04-05T03:46:05;99919.44;;;-0.40;59.78
43115;BME280;28727;50.068;14.452;2023-04-05T03:48:40;99919.44;;;-0.40;59.94
43115;BME280;28727;50.068;14.452;2023-04-05T03:51:13;99918.63;;;-0.41;59.63
43115;BME280;28727;50.068;14.452;2023-04-05T03:53:45;99920.47;;;-0.43;59.61
43115;BME280;28727;50.068;14.452;2023-04-05T03:56:17;99918.81;;;-0.44;59.47
43115;BME280;28727;50.068;14.452;2023-04-05T03:58:53;99916.34;;;-0.47;59.17
43115;BME280;28727;50.068;14.452;2023-04-05T04:01:33;99926.91;;;-0.50;59.52
43115;BME280;28727;50.068;14.452;2023-04-05T04:04:04;99920.97;;;-0.52;59.96
43115;BME280;28727;50.068;14.452;2023-04-05T04:06:36;99926.09;;;-0.50;59.86
43115;BME280;28727;50.068;14.452;2023-04-05T04:09:08;99923.56;;;-0.52;59.89
43115;BME280;28727;50.068;14.452;2023-04-05T04:11:40;99922.91;;;-0.55;59.55
43115;BME280;28727;50.068;14.452;2023-04-05T04:14:12;99922.06;;;-0.56;59.57
43115;BME280;28727;50.068;14.452;2023-04-05T04:17:30;99920.41;;;-0.57;59.65
43115;BME280;28727;50.068;14.452;2023-04-05T04:20:19;99919.75;;;-0.60;60.07
43115;BME280;28727;50.068;14.452;2023-04-05T04:23:09;99918.97;;;-0.62;60.37
43115;BME280;28727;50.068;14.452;2023-04-05T04:25:59;99917.22;;;-0.62;60.18
43115;BME280;28727;50.068;14.452;2023-04-05T04:29:07;99909.50;;;-0.63;60.46
43115;BME280;28727;50.068;14.452;2023-04-05T04:31:59;99917.28;;;-0.63;60.09
43115;BME280;28727;50.068;14.452;2023-04-05T04:34:50;99916.47;;;-0.64;60.41
43115;BME280;28727;50.068;14.452;2023-04-05T04:37:53;99919.16;;;-0.65;59.88
43115;BME280;28727;50.068;14.452;2023-04-05T04:40:50;99921.66;;;-0.64;60.44
43115;BME280;28727;50.068;14.452;2023-04-05T04:43:45;99914.69;;;-0.63;60.15
43115;BME280;28727;50.068;14.452;2023-04-05T04:46:21;99922.47;;;-0.63;60.37
43115;BME280;28727;50.068;14.452;2023-04-05T04:49:17;99921.56;;;-0.62;60.07
43115;BME280;28727;50.068;14.452;2023-04-05T04:51:52;99929.53;;;-0.65;60.51
43115;BME280;28727;50.068;14.452;2023-04-05T04:54:27;99929.53;;;-0.65;60.54
43115;BME280;28727;50.068;14.452;2023-04-05T04:56:59;99923.19;;;-0.60;60.63
43115;BME280;28727;50.068;14.452;2023-04-05T04:59:33;99928.19;;;-0.57;60.10
43115;BME280;28727;50.068;14.452;2023-04-05T05:02:09;99920.41;;;-0.57;60.45
43115;BME280;28727;50.068;14.452;2023-04-05T05:04:41;99927.91;;;-0.52;60.29
43115;BME280;28727;50.068;14.452;2023-04-05T05:07:14;99921.66;;;-0.48;60.52
43115;BME280;28727;50.068;14.452;2023-04-05T05:09:48;99923.91;;;-0.42;60.31
43115;BME280;28727;50.068;14.452;2023-04-05T05:12:26;99921.94;;;-0.23;60.01
43115;BME280;28727;50.068;14.452;2023-04-05T05:14:58;99928.88;;;-0.08;60.01
43115;BME280;28727;50.068;14.452;2023-04-05T05:17:30;99921.81;;;-0.06;59.61
43115;BME280;28727;50.068;14.452;2023-04-05T05:20:10;99926.13;;;0.10;59.92
43115;BME280;28727;50.068;14.452;2023-04-05T05:22:47;99930.94;;;0.46;59.29
43115;BME280;28727;50.068;14.452;2023-04-05T05:25:22;99922.41;;;0.86;58.38
43115;BME280;28727;50.068;14.452;2023-04-05T05:27:54;99923.38;;;1.26;57.62
43115;BME280;28727;50.068;14.452;2023-04-05T05:30:30;99918.06;;;1.69;57.06
43115;BME280;28727;50.068;14.452;2023-04-05T05:33:04;99920.50;;;2.11;56.16
43115;BME280;28727;50.068;14.452;2023-04-05T05:35:36;99917.81;;;2.51;55.37
43115;BME280;28727;50.068;14.452;2023-04-05T05:38:08;99919.03;;;2.96;54.01
43115;BME280;28727;50.068;14.452;2023-04-05T05:40:47;99915.19;;;3.38;52.10
43115;BME280;28727;50.068;14.452;2023-04-05T05:43:19;99925.50;;;3.76;50.84
43115;BME280;28727;50.068;14.452;2023-04-05T05:45:51;99918.72;;;4.08;49.90
43115;BME280;28727;50.068;14.452;2023-04-05T05:48:25;99919.53;;;4.43;48.27
43115;BME280;28727;50.068;14.452;2023-04-05T05:50:57;99916.38;;;4.73;47.99
43115;BME280;28727;50.068;14.452;2023-04-05T05:53:32;99914.00;;;5.15;46.80
43115;BME280;28727;50.068;14.452;2023-04-05T05:56:04;99907.66;;;5.40;46.32
43115;BME280;28727;50.068;14.452;2023-04-05T05:58:39;99909.72;;;5.68;45.25
43115;BME280;28727;50.068;14.452;2023-04-05T06:01:11;99908.31;;;5.64;44.78
43115;BME280;28727;50.068;14.452;2023-04-05T06:03:44;99914.03;;;6.01;45.02
43115;BME280;28727;50.068;14.452;2023-04-05T06:06:16;99905.75;;;6.37;43.94
43115;BME280;28727;50.068;14.452;2023-04-05T06:08:48;99907.91;;;6.83;42.90
43115;BME280;28727;50.068;14.452;2023-04-05T06:11:22;99900.34;;;7.20;42.36
43115;BME280;28727;50.068;14.452;2023-04-05T06:13:55;99905.53;;;7.51;41.21
43115;BME280;28727;50.068;14.452;2023-04-05T06:16:27;99900.81;;;7.45;41.41
43115;BME280;28727;50.068;14.452;2023-04-05T06:19:01;99899.59;;;7.68;40.63
43115;BME280;28727;50.068;14.452;2023-04-05T06:21:33;99903.91;;;8.07;39.53
43115;BME280;28727;50.068;14.452;2023-04-05T06:24:05;99909.97;;;8.56;39.13
43115;BME280;28727;50.068;14.452;2023-04-05T06:26:39;99902.16;;;8.74;37.77
43115;BME280;28727;50.068;14.452;2023-04-05T06:29:14;99900.44;;;8.92;37.53
43115;BME280;28727;50.068;14.452;2023-04-05T06:31:52;99897.22;;;9.25;36.03
43115;BME280;28727;50.068;14.452;2023-04-05T06:34:25;99891.56;;;9.48;35.45
43115;BME280;28727;50.068;14.452;2023-04-05T06:36:57;99892.09;;;9.69;35.16
43115;BME280;28727;50.068;14.452;2023-04-05T06:39:32;99899.16;;;9.51;35.55
43115;BME280;28727;50.068;14.452;2023-04-05T06:42:04;99895.59;;;9.24;36.03
43115;BME280;28727;50.068;14.452;2023-04-05T06:44:46;99896.75;;;9.12;36.46
43115;BME280;28727;50.068;14.452;2023-04-05T06:47:18;99896.44;;;9.15;36.87
43115;BME280;28727;50.068;14.452;2023-04-05T06:49:50;99896.56;;;9.23;36.96
43115;BME280;28727;50.068;14.452;2023-04-05T06:52:22;99897.41;;;9.24;36.66
43115;BME280;28727;50.068;14.452;2023-04-05T06:54:54;99893.94;;;9.23;35.59
43115;BME280;28727;50.068;14.452;2023-04-05T06:57:30;99892.09;;;9.51;35.45
43115;BME280;28727;50.068;14.452;2023-04-05T07:00:06;99890.22;;;9.79;34.65
43115;BME280;28727;50.068;14.452;2023-04-05T07:02:42;99881.91;;;10.09;35.27
43115;BME280;28727;50.068;14.452;2023-04-05T07:05:15;99885.72;;;10.50;34.90
43115;BME280;28727;50.068;14.452;2023-04-05T07:07:47;99881.50;;;10.91;34.02
43115;BME280;28727;50.068;14.452;2023-04-05T07:10:45;99881.56;;;11.07;33.32
43115;BME280;28727;50.068;14.452;2023-04-05T07:13:18;99877.56;;;11.37;32.82
43115;BME280;28727;50.068;14.452;2023-04-05T07:16:00;99877.03;;;11.92;32.42
43115;BME280;28727;50.068;14.452;2023-04-05T07:18:32;99869.41;;;12.54;31.60
43115;BME280;28727;50.068;14.452;2023-04-05T07:21:04;99871.03;;;12.63;30.68
43115;BME280;28727;50.068;14.452;2023-04-05T07:23:36;99855.59;;;12.66;30.22
43115;BME280;28727;50.068;14.452;2023-04-05T07:26:08;99859.66;;;13.01;30.75
43115;BME280;28727;50.068;14.452;2023-04-05T07:28:39;99860.81;;;13.38;31.03
43115;BME280;28727;50.068;14.452;2023-04-05T07:31:13;99851.44;;;13.81;30.56
43115;BME280;28727;50.068;14.452;2023-04-05T07:33:47;99850.50;;;14.34;32.52
43115;BME280;28727;50.068;14.452;2023-04-05T07:36:21;99857.34;;;14.81;28.48
43115;BME280;28727;50.068;14.452;2023-04-05T07:38:56;99849.66;;;15.00;28.28
43115;BME280;28727;50.068;14.452;2023-04-05T07:41:28;99845.72;;;15.32;26.86
43115;BME280;28727;50.068;14.452;2023-04-05T07:44:07;99851.31;;;15.52;26.63
43115;BME280;28727;50.068;14.452;2023-04-05T07:46:39;99840.81;;;15.65;26.15
43115;BME280;28727;50.068;14.452;2023-04-05T07:49:26;99850.22;;;15.82;25.42
43115;BME280;28727;50.068;14.452;2023-04-05T07:52:01;99846.28;;;15.78;25.88
43115;BME280;28727;50.068;14.452;2023-04-05T07:54:33;99842.06;;;15.90;25.24
43115;BME280;28727;50.068;14.452;2023-04-05T07:57:04;99846.16;;;16.08;24.55
43115;BME280;28727;50.068;14.452;2023-04-05T07:59:40;99851.47;;;15.50;24.75
43115;BME280;28727;50.068;14.452;2023-04-05T08:02:14;99839.22;;;15.35;25.33
43115;BME280;28727;50.068;14.452;2023-04-05T08:04:46;99842.56;;;15.58;25.27
43115;BME280;28727;50.068;14.452;2023-04-05T08:07:17;99841.81;;;15.64;25.35
43115;BME280;28727;50.068;14.452;2023-04-05T08:09:49;99836.69;;;15.63;24.54
43115;BME280;28727;50.068;14.452;2023-04-05T08:12:24;99831.41;;;15.33;24.43
43115;BME280;28727;50.068;14.452;2023-04-05T08:14:57;99843.19;;;15.24;24.83
43115;BME280;28727;50.068;14.452;2023-04-05T08:17:29;99841.53;;;15.23;24.99
43115;BME280;28727;50.068;14.452;2023-04-05T08:20:00;99839.00;;;14.86;24.26
43115;BME280;28727;50.068;14.452;2023-04-05T08:22:32;99833.69;;;15.00;24.34
43115;BME280;28727;50.068;14.452;2023-04-05T08:25:04;99833.78;;;14.78;25.10
43115;BME280;28727;50.068;14.452;2023-04-05T08:27:38;99838.38;;;14.84;25.01
43115;BME280;28727;50.068;14.452;2023-04-05T08:30:10;99833.59;;;15.44;24.40
43115;BME280;28727;50.068;14.452;2023-04-05T08:32:45;99840.88;;;15.72;23.06
43115;BME280;28727;50.068;14.452;2023-04-05T08:35:17;99833.13;;;15.55;23.05
43115;BME280;28727;50.068;14.452;2023-04-05T08:37:49;99837.81;;;15.75;22.96
43115;BME280;28727;50.068;14.452;2023-04-05T08:40:33;99835.94;;;15.90;22.48
43115;BME280;28727;50.068;14.452;2023-04-05T08:45:58;99824.75;;;15.59;21.65
43115;BME280;28727;50.068;14.452;2023-04-05T08:48:31;99826.16;;;15.04;22.68
43115;BME280;28727;50.068;14.452;2023-04-05T08:51:08;99818.03;;;15.27;22.44
43115;BME280;28727;50.068;14.452;2023-04-05T08:53:41;99831.69;;;15.53;22.26
43115;BME280;28727;50.068;14.452;2023-04-05T08:56:14;99822.00;;;15.16;22.76
43115;BME280;28727;50.068;14.452;2023-04-05T08:59:01;99824.84;;;13.66;23.13
43115;BME280;28727;50.068;14.452;2023-04-05T09:01:41;99829.66;;;13.01;24.53
43115;BME280;28727;50.068;14.452;2023-04-05T09:04:17;99830.59;;;12.61;25.05
43115;BME280;28727;50.068;14.452;2023-04-05T09:06:50;99831.34;;;11.90;25.85
43115;BME280;28727;50.068;14.452;2023-04-05T09:09:31;99830.16;;;11.60;25.95
43115;BME280;28727;50.068;14.452;2023-04-05T09:12:06;99829.59;;;11.32;26.00
43115;BME280;28727;50.068;14.452;2023-04-05T09:14:38;99832.28;;;11.40;26.27
43115;BME280;28727;50.068;14.452;2023-04-05T09:17:13;99831.00;;;11.69;26.45
43115;BME280;28727;50.068;14.452;2023-04-05T09:19:50;99821.09;;;12.11;25.87
43115;BME280;28727;50.068;14.452;2023-04-05T09:22:23;99815.31;;;12.24;25.24
43115;BME280;28727;50.068;14.452;2023-04-05T09:24:58;99818.28;;;12.21;28.27
43115;BME280;28727;50.068;14.452;2023-04-05T09:27:29;99811.47;;;12.90;28.66
43115;BME280;28727;50.068;14.452;2023-04-05T09:30:20;99805.63;;;13.56;27.54
43115;BME280;28727;50.068;14.452;2023-04-05T09:32:55;99810.06;;;12.71;29.11
43115;BME280;28727;50.068;14.452;2023-04-05T09:35:30;99805.38;;;12.73;26.75
43115;BME280;28727;50.068;14.452;2023-04-05T09:38:05;99813.34;;;12.73;25.49
43115;BME280;28727;50.068;14.452;2023-04-05T09:40:46;99807.22;;;12.72;25.77
43115;BME280;28727;50.068;14.452;2023-04-05T09:43:39;99805.22;;;12.75;25.40
43115;BME280;28727;50.068;14.452;2023-04-05T09:46:27;99809.59;;;12.51;26.95
43115;BME280;28727;50.068;14.452;2023-04-05T09:49:03;99813.47;;;12.16;26.06
43115;BME280;28727;50.068;14.452;2023-04-05T09:51:37;99805.50;;;12.32;25.99
43115;BME280;28727;50.068;14.452;2023-04-05T09:54:12;99801.66;;;12.43;25.65
43115;BME280;28727;50.068;14.452;2023-04-05T09:56:53;99797.94;;;12.68;25.22
43115;BME280;28727;50.068;14.452;2023-04-05T09:59:32;99796.97;;;12.69;26.78
43115;BME280;28727;50.068;14.452;2023-04-05T10:02:24;99805.53;;;12.24;27.01
43115;BME280;28727;50.068;14.452;2023-04-05T10:04:59;99796.06;;;12.38;26.80
43115;BME280;28727;50.068;14.452;2023-04-05T10:07:37;99793.44;;;12.30;26.28
43115;BME280;28727;50.068;14.452;2023-04-05T10:10:11;99802.25;;;11.98;25.99
43115;BME280;28727;50.068;14.452;2023-04-05T10:12:44;99803.28;;;11.15;26.96
43115;BME280;28727;50.068;14.452;2023-04-05T10:15:17;99800.16;;;10.69;27.67
43115;BME280;28727;50.068;14.452;2023-04-05T10:20:27;99798.50;;;11.18;26.61
43115;BME280;28727;50.068;14.452;2023-04-05T10:23:27;99793.97;;;11.85;27.08
43115;BME280;28727;50.068;14.452;2023-04-05T10:26:31;99780.81;;;12.48;25.64
43115;BME280;28727;50.068;14.452;2023-04-05T10:29:31;99777.91;;;13.13;26.28
43115;BME280;28727;50.068;14.452;2023-04-05T10:32:17;99773.16;;;13.77;24.30
43115;BME280;28727;50.068;14.452;2023-04-05T10:35:02;99763.91;;;14.40;24.16
43115;BME280;28727;50.068;14.452;2023-04-05T10:40:31;99759.25;;;14.71;22.73
43115;BME280;28727;50.068;14.452;2023-04-05T10:43:14;99761.66;;;15.02;22.03
43115;BME280;28727;50.068;14.452;2023-04-05T10:45:52;99753.63;;;14.81;22.66
43115;BME280;28727;50.068;14.452;2023-04-05T10:48:50;99760.69;;;14.88;20.52
43115;BME280;28727;50.068;14.452;2023-04-05T10:51:25;99768.81;;;14.28;21.96
43115;BME280;28727;50.068;14.452;2023-04-05T10:54:01;99759.88;;;13.91;21.60
43115;BME280;28727;50.068;14.452;2023-04-05T10:56:33;99762.53;;;13.91;22.24
43115;BME280;28727;50.068;14.452;2023-04-05T10:59:12;99760.53;;;13.93;22.83
43115;BME280;28727;50.068;14.452;2023-04-05T11:01:48;99753.38;;;13.57;23.28
43115;BME280;28727;50.068;14.452;2023-04-05T11:04:21;99763.25;;;12.47;24.16
43115;BME280;28727;50.068;14.452;2023-04-05T11:07:17;99766.97;;;11.57;25.45
43115;BME280;28727;50.068;14.452;2023-04-05T11:18:06;99767.09;;;11.07;26.68
43115;BME280;28727;50.068;14.452;2023-04-05T11:21:04;99759.69;;;11.19;25.53
43115;BME280;28727;50.068;14.452;2023-04-05T11:29:46;99760.94;;;10.56;25.79
43115;BME280;28727;50.068;14.452;2023-04-05T11:32:22;99753.47;;;10.78;26.09
43115;BME280;28727;50.068;14.452;2023-04-05T11:35:04;99756.16;;;11.02;27.00
43115;BME280;28727;50.068;14.452;2023-04-05T11:40:35;99754.91;;;10.30;27.20
43115;BME280;28727;50.068;14.452;2023-04-05T11:43:10;99746.16;;;10.38;27.56
43115;BME280;28727;50.068;14.452;2023-04-05T11:45:42;99747.75;;;10.56;28.39
43115;BME280;28727;50.068;14.452;2023-04-05T11:48:19;99750.84;;;10.94;28.36
43115;BME280;28727;50.068;14.452;2023-04-05T11:50:53;99751.75;;;11.27;27.61
43115;BME280;28727;50.068;14.452;2023-04-05T11:53:24;99749.44;;;11.32;27.74
43115;BME280;28727;50.068;14.452;2023-04-05T11:56:05;99744.94;;;11.16;28.47
43115;BME280;28727;50.068;14.452;2023-04-05T11:58:37;99742.66;;;11.37;27.38
43115;BME280;28727;50.068;14.452;2023-04-05T12:01:10;99740.78;;;10.97;27.12
43115;BME280;28727;50.068;14.452;2023-04-05T12:03:52;99741.16;;;10.26;28.15
43115;BME280;28727;50.068;14.452;2023-04-05T12:06:25;99740.03;;;10.29;28.47
43115;BME280;28727;50.068;14.452;2023-04-05T12:08:57;99737.72;;;10.60;29.16
43115;BME280;28727;50.068;14.452;2023-04-05T12:11:29;99741.03;;;10.78;27.92
43115;BME280;28727;50.068;14.452;2023-04-05T12:14:03;99737.03;;;11.16;27.93
43115;BME280;28727;50.068;14.452;2023-04-05T12:16:35;99734.25;;;11.74;28.54
43115;BME280;28727;50.068;14.452;2023-04-05T12:19:07;99725.88;;;12.34;27.36
43115;BME280;28727;50.068;14.452;2023-04-05T12:21:39;99721.66;;;12.87;27.62
43115;BME280;28727;50.068;14.452;2023-04-05T12:24:11;99709.66;;;13.30;25.96
43115;BME280;28727;50.068;14.452;2023-04-05T12:26:43;99712.34;;;13.44;25.90
43115;BME280;28727;50.068;14.452;2023-04-05T12:29:15;99713.56;;;13.11;27.71
43115;BME280;28727;50.068;14.452;2023-04-05T12:31:49;99710.56;;;13.14;26.86
43115;BME280;28727;50.068;14.452;2023-04-05T12:34:24;99715.31;;;12.96;26.23
43115;BME280;28727;50.068;14.452;2023-04-05T12:36:59;99716.47;;;12.23;28.06
43115;BME280;28727;50.068;14.452;2023-04-05T12:39:37;99718.50;;;12.05;27.88
43115;BME280;28727;50.068;14.452;2023-04-05T12:42:16;99712.22;;;12.06;26.30
43115;BME280;28727;50.068;14.452;2023-04-05T12:45:02;99716.72;;;11.89;26.99
43115;BME280;28727;50.068;14.452;2023-04-05T12:47:35;99720.50;;;11.71;26.87
43115;BME280;28727;50.068;14.452;2023-04-05T12:50:13;99718.19;;;11.43;27.62
43115;BME280;28727;50.068;14.452;2023-04-05T12:53:22;99721.25;;;10.82;27.61
43115;BME280;28727;50.068;14.452;2023-04-05T12:55:57;99719.03;;;10.61;28.28
43115;BME280;28727;50.068;14.452;2023-04-05T12:58:36;99709.53;;;10.43;28.14
43115;BME280;28727;50.068;14.452;2023-04-05T13:01:08;99711.25;;;10.52;29.07
43115;BME280;28727;50.068;14.452;2023-04-05T13:03:44;99716.38;;;10.53;29.12
43115;BME280;28727;50.068;14.452;2023-04-05T13:06:44;99712.56;;;9.96;29.40
43115;BME280;28727;50.068;14.452;2023-04-05T13:09:19;99710.19;;;9.85;28.79
43115;BME280;28727;50.068;14.452;2023-04-05T13:11:51;99712.31;;;10.07;28.76
43115;BME280;28727;50.068;14.452;2023-04-05T13:14:22;99715.56;;;10.19;28.63
43115;BME280;28727;50.068;14.452;2023-04-05T13:16:54;99706.59;;;10.12;28.36
43115;BME280;28727;50.068;14.452;2023-04-05T13:19:30;99699.50;;;10.12;28.73
43115;BME280;28727;50.068;14.452;2023-04-05T13:22:26;99699.66;;;10.11;29.03
43115;BME280;28727;50.068;14.452;2023-04-05T13:24:58;99702.03;;;9.96;29.45
43115;BME280;28727;50.068;14.452;2023-04-05T13:27:29;99709.22;;;9.86;29.46
43115;BME280;28727;50.068;14.452;2023-04-05T13:30:02;99690.19;;;10.00;29.28
43115;BME280;28727;50.068;14.452;2023-04-05T13:32:34;99696.69;;;10.14;28.96
43115;BME280;28727;50.068;14.452;2023-04-05T13:35:08;99689.16;;;10.19;28.84
43115;BME280;28727;50.068;14.452;2023-04-05T13:37:40;99694.03;;;10.14;28.83
43115;BME280;28727;50.068;14.452;2023-04-05T13:40:15;99692.34;;;10.05;29.33
43115;BME280;28727;50.068;14.452;2023-04-05T13:42:47;99693.19;;;10.05;29.61
43115;BME280;28727;50.068;14.452;2023-04-05T13:45:28;99683.09;;;10.01;28.95
43115;BME280;28727;50.068;14.452;2023-04-05T13:48:00;99686.22;;;9.70;29.18
43115;BME280;28727;50.068;14.452;2023-04-05T13:50:36;99684.53;;;9.26;29.90
43115;BME280;28727;50.068;14.452;2023-04-05T13:53:08;99686.31;;;8.99;29.98
43115;BME280;28727;50.068;14.452;2023-04-05T13:55:40;99684.28;;;8.93;30.42
43115;BME280;28727;50.068;14.452;2023-04-05T13:58:12;99682.59;;;8.75;31.30
43115;BME280;28727;50.068;14.452;2023-04-05T14:00:45;99683.78;;;8.62;30.89
43115;BME280;28727;50.068;14.452;2023-04-05T14:03:20;99681.59;;;8.58;31.16
43115;BME280;28727;50.068;14.452;2023-04-05T14:05:52;99679.25;;;8.55;31.62
43115;BME280;28727;50.068;14.452;2023-04-05T14:08:26;99687.19;;;8.45;31.94
43115;BME280;28727;50.068;14.452;2023-04-05T14:10:57;99679.50;;;8.34;32.31
43115;BME280;28727;50.068;14.452;2023-04-05T14:13:29;99680.53;;;8.51;31.83
43115;BME280;28727;50.068;14.452;2023-04-05T14:16:01;99669.03;;;8.70;32.54
43115;BME280;28727;50.068;14.452;2023-04-05T14:18:33;99680.94;;;8.74;31.03